Terminal Aerodrome Forecast
Issued by NWS

Home | Current Version | Previous Version | Text Only | Print | Product List | Glossary On
Versions: 1 2 3 4 5 6 7 8 9 10 11 12 13 14
070
FTUS42 KMLB 192320
TAFSUA
TAF
KSUA 192320Z 2000/2024 01004KT P6SM SCT020 BKN250
     FM200200 VRB03KT P6SM FEW035 BKN200
     FM201500 07008KT P6SM SCT035 SCT120 BKN150
     FM201700 10009KT P6SM SCT035 BKN120=

USA.gov is the U.S. government's official web portal to all federal, state and local government web resources and services.